createdAt,value
2023-04-11T00:05:58.603Z,100265.72
2023-04-11T00:16:02.113Z,100281.06
2023-04-11T00:26:06.983Z,100271.22
2023-04-11T00:36:11.242Z,100257.19
2023-04-11T00:46:17.278Z,100239.53
2023-04-11T00:56:21.035Z,100234.19
2023-04-11T01:06:26.581Z,100215.00
2023-04-11T01:16:30.519Z,100210.44
2023-04-11T01:26:35.642Z,100229.75
2023-04-11T01:36:40.036Z,100239.03
2023-04-11T01:46:45.229Z,100227.09
2023-04-11T01:56:48.529Z,100233.13
2023-04-11T02:06:53.144Z,100236.09
2023-04-11T02:16:57.858Z,100254.50
2023-04-11T02:27:04.117Z,100257.13
2023-04-11T02:37:07.178Z,100275.47
2023-04-11T02:47:11.766Z,100276.03
2023-04-11T02:57:15.369Z,100292.75
2023-04-11T03:07:20.071Z,100308.41
2023-04-11T03:17:23.482Z,100313.63
2023-04-11T03:27:28.351Z,100318.00
2023-04-11T03:37:36.614Z,100320.69
2023-04-11T03:47:41.351Z,100317.81
2023-04-11T03:57:45.580Z,100332.38
2023-04-11T04:07:50.819Z,100338.44
2023-04-11T04:18:23.263Z,100337.66
2023-04-11T04:28:28.845Z,100339.31
2023-04-11T04:38:38.741Z,100367.59
2023-04-11T04:48:46.755Z,100349.66
2023-04-11T04:58:50.031Z,100366.75
2023-04-11T05:08:57.469Z,100353.78
2023-04-11T05:19:01.055Z,100363.19
2023-04-11T05:29:06.711Z,100388.09
2023-04-11T05:39:10.260Z,100398.22
2023-04-11T05:49:15.681Z,100402.69
2023-04-11T05:59:24.721Z,100411.06
2023-04-11T06:09:33.374Z,100428.44
2023-04-11T06:19:36.966Z,100431.19
2023-04-11T06:29:44.117Z,100446.47
2023-04-11T06:39:47.248Z,100449.91
2023-04-11T06:49:51.919Z,100463.06
2023-04-11T06:59:55.204Z,100474.88
2023-04-11T07:09:59.805Z,100477.94
2023-04-11T07:20:04.354Z,100488.75
2023-04-11T07:30:10.215Z,100491.38
2023-04-11T07:40:14.481Z,100500.69
2023-04-11T07:50:18.999Z,100519.53
2023-04-11T08:00:24.124Z,100521.38
2023-04-11T08:10:28.608Z,100519.59
2023-04-11T08:20:32.027Z,100536.06
2023-04-11T08:30:36.519Z,100531.31
2023-04-11T08:40:39.920Z,100551.28
2023-04-11T08:50:45.464Z,100552.78
2023-04-11T09:00:48.604Z,100566.84
2023-04-11T09:10:53.121Z,100569.28
2023-04-11T09:21:01.016Z,100572.59
2023-04-11T09:31:05.801Z,100571.13
2023-04-11T09:41:08.877Z,100557.63
2023-04-11T09:51:18.089Z,100569.06
2023-04-11T10:01:31.519Z,100561.50
2023-04-11T10:11:36.726Z,100573.19
2023-04-11T10:21:41.997Z,100566.84
2023-04-11T10:32:09.399Z,100564.97
2023-04-11T10:42:27.583Z,100585.38
2023-04-11T10:52:38.937Z,100575.25
2023-04-11T11:02:42.480Z,100581.31
2023-04-11T11:12:56.699Z,100567.28
2023-04-11T11:23:01.229Z,100574.34
2023-04-11T11:33:27.666Z,100579.47
2023-04-11T11:43:30.751Z,100579.38
2023-04-11T11:53:35.128Z,100570.06
2023-04-11T12:03:38.646Z,100575.34
2023-04-11T12:13:45.597Z,100575.16
2023-04-11T12:23:48.668Z,100569.69
2023-04-11T12:33:53.537Z,100569.59
2023-04-11T12:43:56.832Z,100561.00
2023-04-11T12:54:20.001Z,100574.00
2023-04-11T13:04:23.860Z,100566.88
2023-04-11T13:14:28.876Z,100560.53
2023-04-11T13:24:33.131Z,100560.13
2023-04-11T13:34:38.124Z,100559.84
2023-04-11T13:44:41.426Z,100567.19
2023-04-11T13:54:46.087Z,100574.78
2023-04-11T14:04:49.689Z,100577.03
2023-04-11T14:14:54.059Z,100569.31
2023-04-11T14:24:56.919Z,100561.84
2023-04-11T14:35:02.514Z,100550.28
2023-04-11T14:45:08.615Z,100548.84
2023-04-11T14:55:13.346Z,100550.13
2023-04-11T15:05:18.135Z,100535.41
2023-04-11T15:15:23.870Z,100524.00
2023-04-11T15:25:26.848Z,100518.09
2023-04-11T15:35:31.153Z,100517.41
2023-04-11T15:45:35.713Z,100507.22
2023-04-11T15:55:41.268Z,100514.75
2023-04-11T16:05:45.152Z,100498.19
2023-04-11T16:15:49.799Z,100492.78
2023-04-11T16:25:52.672Z,100476.00
2023-04-11T16:35:57.137Z,100469.94
2023-04-11T16:46:00.288Z,100466.94
2023-04-11T16:56:04.860Z,100470.22
2023-04-11T17:06:14.669Z,100465.66
2023-04-11T17:16:19.466Z,100464.56
2023-04-11T17:26:22.633Z,100467.50
2023-04-11T17:36:28.559Z,100451.78
2023-04-11T17:46:32.053Z,100448.16
2023-04-11T17:56:36.459Z,100430.03
2023-04-11T18:06:40.459Z,100422.84
2023-04-11T18:16:47.302Z,100422.38
2023-04-11T18:26:51.644Z,100419.44
2023-04-11T18:36:56.118Z,100428.22
2023-04-11T18:47:01.215Z,100420.28
2023-04-11T18:57:08.000Z,100412.22
2023-04-11T19:07:12.653Z,100402.97
2023-04-11T19:17:16.872Z,100393.81
2023-04-11T19:27:21.714Z,100378.41
2023-04-11T19:37:26.458Z,100374.38
2023-04-11T19:47:30.036Z,100379.53
2023-04-11T19:57:35.016Z,100361.63
2023-04-11T20:07:39.014Z,100346.22
2023-04-11T20:17:45.923Z,100335.16
2023-04-11T20:27:49.505Z,100317.41
2023-04-11T20:37:54.255Z,100298.44
2023-04-11T20:47:59.756Z,100284.66
2023-04-11T20:58:08.499Z,100273.09
2023-04-11T21:08:12.102Z,100251.56
2023-04-11T21:18:16.600Z,100230.69
2023-04-11T21:28:19.411Z,100220.50
2023-04-11T21:38:23.722Z,100214.69
2023-04-11T21:48:27.209Z,100200.03
2023-04-11T21:58:31.661Z,100184.25
2023-04-11T22:08:38.876Z,100171.47
2023-04-11T22:18:49.939Z,100154.78
2023-04-11T22:28:53.068Z,100135.84
2023-04-11T22:38:57.458Z,100125.94
2023-04-11T22:49:00.825Z,100109.13
2023-04-11T22:59:05.281Z,100087.72
2023-04-11T23:09:09.390Z,100080.84
2023-04-11T23:19:13.828Z,100055.16
2023-04-11T23:29:17.196Z,100047.41
2023-04-11T23:39:22.924Z,100045.06
2023-04-11T23:49:26.782Z,100022.34
2023-04-11T23:59:31.938Z,100014.41
